sensor_id;sensor_type;location;lat;lon;timestamp;P1;durP1;ratioP1;P2;durP2;ratioP2
23394;SDS011;11870;53.084;18.206;2022-12-29T00:00:05;14.48;;;6.30;;
23394;SDS011;11870;53.084;18.206;2022-12-29T00:02:33;13.68;;;6.22;;
23394;SDS011;11870;53.084;18.206;2022-12-29T00:04:59;16.83;;;7.50;;
23394;SDS011;11870;53.084;18.206;2022-12-29T00:07:25;16.15;;;7.70;;
23394;SDS011;11870;53.084;18.206;2022-12-29T00:09:51;20.88;;;9.20;;
23394;SDS011;11870;53.084;18.206;2022-12-29T00:12:16;19.70;;;8.38;;
23394;SDS011;11870;53.084;18.206;2022-12-29T00:14:42;18.90;;;8.80;;
23394;SDS011;11870;53.084;18.206;2022-12-29T00:17:27;17.05;;;7.05;;
23394;SDS011;11870;53.084;18.206;2022-12-29T00:19:53;15.93;;;7.70;;
23394;SDS011;11870;53.084;18.206;2022-12-29T00:22:45;15.50;;;7.07;;
23394;SDS011;11870;53.084;18.206;2022-12-29T00:25:30;14.73;;;8.02;;
23394;SDS011;11870;53.084;18.206;2022-12-29T00:28:14;15.02;;;7.47;;
23394;SDS011;11870;53.084;18.206;2022-12-29T00:30:59;13.32;;;7.15;;
23394;SDS011;11870;53.084;18.206;2022-12-29T00:33:44;15.30;;;7.78;;
23394;SDS011;11870;53.084;18.206;2022-12-29T00:36:33;13.45;;;6.93;;
23394;SDS011;11870;53.084;18.206;2022-12-29T00:39:03;13.63;;;6.72;;
23394;SDS011;11870;53.084;18.206;2022-12-29T00:41:55;13.70;;;6.80;;
23394;SDS011;11870;53.084;18.206;2022-12-29T00:44:39;21.77;;;9.30;;
23394;SDS011;11870;53.084;18.206;2022-12-29T00:47:05;17.23;;;8.30;;
23394;SDS011;11870;53.084;18.206;2022-12-29T00:49:31;14.85;;;8.07;;
23394;SDS011;11870;53.084;18.206;2022-12-29T00:51:59;17.52;;;8.38;;
23394;SDS011;11870;53.084;18.206;2022-12-29T00:54:25;21.55;;;9.20;;
23394;SDS011;11870;53.084;18.206;2022-12-29T00:56:52;32.50;;;11.02;;
23394;SDS011;11870;53.084;18.206;2022-12-29T00:59:18;28.05;;;9.98;;
23394;SDS011;11870;53.084;18.206;2022-12-29T01:01:45;24.52;;;9.32;;
23394;SDS011;11870;53.084;18.206;2022-12-29T01:04:12;33.05;;;12.85;;
23394;SDS011;11870;53.084;18.206;2022-12-29T01:06:39;26.10;;;11.90;;
23394;SDS011;11870;53.084;18.206;2022-12-29T01:09:06;21.45;;;10.65;;
23394;SDS011;11870;53.084;18.206;2022-12-29T01:11:51;13.95;;;7.82;;
23394;SDS011;11870;53.084;18.206;2022-12-29T01:14:17;17.52;;;7.70;;
23394;SDS011;11870;53.084;18.206;2022-12-29T01:16:45;15.40;;;7.57;;
23394;SDS011;11870;53.084;18.206;2022-12-29T01:19:11;16.10;;;7.40;;
23394;SDS011;11870;53.084;18.206;2022-12-29T01:21:37;12.40;;;7.10;;
23394;SDS011;11870;53.084;18.206;2022-12-29T01:24:03;15.80;;;7.32;;
23394;SDS011;11870;53.084;18.206;2022-12-29T01:26:30;14.68;;;7.00;;
23394;SDS011;11870;53.084;18.206;2022-12-29T01:28:56;15.00;;;7.43;;
23394;SDS011;11870;53.084;18.206;2022-12-29T01:31:22;17.88;;;9.07;;
23394;SDS011;11870;53.084;18.206;2022-12-29T01:33:48;22.90;;;9.20;;
23394;SDS011;11870;53.084;18.206;2022-12-29T01:36:14;16.85;;;8.35;;
23394;SDS011;11870;53.084;18.206;2022-12-29T01:38:41;14.95;;;7.22;;
23394;SDS011;11870;53.084;18.206;2022-12-29T01:41:09;16.08;;;7.68;;
23394;SDS011;11870;53.084;18.206;2022-12-29T01:46:18;17.83;;;7.47;;
23394;SDS011;11870;53.084;18.206;2022-12-29T01:48:57;17.27;;;8.45;;
23394;SDS011;11870;53.084;18.206;2022-12-29T01:51:28;21.23;;;8.15;;
23394;SDS011;11870;53.084;18.206;2022-12-29T01:53:56;40.40;;;14.23;;
23394;SDS011;11870;53.084;18.206;2022-12-29T01:56:27;29.92;;;11.30;;
23394;SDS011;11870;53.084;18.206;2022-12-29T01:59:00;30.67;;;10.93;;
23394;SDS011;11870;53.084;18.206;2022-12-29T02:01:30;20.17;;;8.00;;
23394;SDS011;11870;53.084;18.206;2022-12-29T02:03:56;23.35;;;9.18;;
23394;SDS011;11870;53.084;18.206;2022-12-29T02:06:23;18.15;;;8.57;;
23394;SDS011;11870;53.084;18.206;2022-12-29T02:08:53;16.15;;;7.93;;
23394;SDS011;11870;53.084;18.206;2022-12-29T02:11:23;19.30;;;9.23;;
23394;SDS011;11870;53.084;18.206;2022-12-29T02:13:51;24.10;;;10.25;;
23394;SDS011;11870;53.084;18.206;2022-12-29T02:19:07;26.63;;;10.38;;
23394;SDS011;11870;53.084;18.206;2022-12-29T02:28:06;21.95;;;9.27;;
23394;SDS011;11870;53.084;18.206;2022-12-29T02:33:21;22.67;;;8.45;;
23394;SDS011;11870;53.084;18.206;2022-12-29T02:38:53;16.60;;;8.35;;
23394;SDS011;11870;53.084;18.206;2022-12-29T02:44:17;13.18;;;7.47;;
23394;SDS011;11870;53.084;18.206;2022-12-29T02:46:58;12.45;;;6.88;;
23394;SDS011;11870;53.084;18.206;2022-12-29T02:52:06;14.15;;;7.00;;
23394;SDS011;11870;53.084;18.206;2022-12-29T02:54:36;10.50;;;6.38;;
23394;SDS011;11870;53.084;18.206;2022-12-29T02:57:12;12.93;;;6.38;;
23394;SDS011;11870;53.084;18.206;2022-12-29T03:00:04;13.48;;;6.82;;
23394;SDS011;11870;53.084;18.206;2022-12-29T03:05:53;12.10;;;6.10;;
23394;SDS011;11870;53.084;18.206;2022-12-29T03:08:53;11.52;;;6.03;;
23394;SDS011;11870;53.084;18.206;2022-12-29T03:11:27;14.43;;;7.05;;
23394;SDS011;11870;53.084;18.206;2022-12-29T03:14:25;13.77;;;5.80;;
23394;SDS011;11870;53.084;18.206;2022-12-29T03:17:24;12.88;;;6.32;;
23394;SDS011;11870;53.084;18.206;2022-12-29T03:19:58;9.93;;;5.22;;
23394;SDS011;11870;53.084;18.206;2022-12-29T03:22:30;11.30;;;6.05;;
23394;SDS011;11870;53.084;18.206;2022-12-29T03:28:01;9.93;;;5.50;;
23394;SDS011;11870;53.084;18.206;2022-12-29T03:30:32;9.98;;;4.97;;
23394;SDS011;11870;53.084;18.206;2022-12-29T03:33:02;7.90;;;5.28;;
23394;SDS011;11870;53.084;18.206;2022-12-29T03:35:31;15.23;;;5.60;;
23394;SDS011;11870;53.084;18.206;2022-12-29T03:40:27;13.27;;;4.95;;
23394;SDS011;11870;53.084;18.206;2022-12-29T03:42:54;9.45;;;5.20;;
23394;SDS011;11870;53.084;18.206;2022-12-29T03:45:21;7.55;;;4.75;;
23394;SDS011;11870;53.084;18.206;2022-12-29T03:47:47;11.15;;;5.43;;
23394;SDS011;11870;53.084;18.206;2022-12-29T03:50:13;12.45;;;5.65;;
23394;SDS011;11870;53.084;18.206;2022-12-29T03:52:40;11.25;;;5.25;;
23394;SDS011;11870;53.084;18.206;2022-12-29T03:55:05;9.38;;;5.00;;
23394;SDS011;11870;53.084;18.206;2022-12-29T03:57:32;11.55;;;5.43;;
23394;SDS011;11870;53.084;18.206;2022-12-29T03:59:58;10.57;;;5.22;;
23394;SDS011;11870;53.084;18.206;2022-12-29T04:02:23;8.23;;;4.85;;
23394;SDS011;11870;53.084;18.206;2022-12-29T04:04:49;10.32;;;5.40;;
23394;SDS011;11870;53.084;18.206;2022-12-29T04:07:15;9.48;;;5.15;;
23394;SDS011;11870;53.084;18.206;2022-12-29T04:09:41;10.57;;;5.40;;
23394;SDS011;11870;53.084;18.206;2022-12-29T04:12:07;8.43;;;4.75;;
23394;SDS011;11870;53.084;18.206;2022-12-29T04:14:33;9.90;;;5.00;;
23394;SDS011;11870;53.084;18.206;2022-12-29T04:16:59;11.38;;;5.30;;
23394;SDS011;11870;53.084;18.206;2022-12-29T04:19:24;8.13;;;5.03;;
23394;SDS011;11870;53.084;18.206;2022-12-29T04:21:50;9.27;;;4.82;;
23394;SDS011;11870;53.084;18.206;2022-12-29T04:24:16;8.60;;;5.32;;
23394;SDS011;11870;53.084;18.206;2022-12-29T04:26:42;12.10;;;5.22;;
23394;SDS011;11870;53.084;18.206;2022-12-29T04:29:08;11.77;;;5.40;;
23394;SDS011;11870;53.084;18.206;2022-12-29T04:31:34;7.30;;;4.63;;
23394;SDS011;11870;53.084;18.206;2022-12-29T04:34:00;11.10;;;5.00;;
23394;SDS011;11870;53.084;18.206;2022-12-29T04:36:27;8.25;;;5.05;;
23394;SDS011;11870;53.084;18.206;2022-12-29T04:38:52;9.02;;;5.10;;
23394;SDS011;11870;53.084;18.206;2022-12-29T04:41:18;8.25;;;4.72;;
23394;SDS011;11870;53.084;18.206;2022-12-29T04:43:44;10.77;;;5.97;;
23394;SDS011;11870;53.084;18.206;2022-12-29T04:46:10;9.82;;;5.13;;
23394;SDS011;11870;53.084;18.206;2022-12-29T04:48:36;10.50;;;5.00;;
23394;SDS011;11870;53.084;18.206;2022-12-29T04:51:02;10.43;;;5.03;;
23394;SDS011;11870;53.084;18.206;2022-12-29T04:53:28;9.68;;;5.05;;
23394;SDS011;11870;53.084;18.206;2022-12-29T04:55:55;10.43;;;4.55;;
23394;SDS011;11870;53.084;18.206;2022-12-29T04:58:21;9.30;;;4.93;;
23394;SDS011;11870;53.084;18.206;2022-12-29T05:00:47;9.05;;;4.72;;
23394;SDS011;11870;53.084;18.206;2022-12-29T05:03:12;7.38;;;4.75;;
23394;SDS011;11870;53.084;18.206;2022-12-29T05:05:39;10.30;;;4.97;;
23394;SDS011;11870;53.084;18.206;2022-12-29T05:08:04;8.05;;;4.60;;
23394;SDS011;11870;53.084;18.206;2022-12-29T05:10:30;10.38;;;4.65;;
23394;SDS011;11870;53.084;18.206;2022-12-29T05:12:57;9.50;;;4.72;;
23394;SDS011;11870;53.084;18.206;2022-12-29T05:15:23;9.85;;;4.93;;
23394;SDS011;11870;53.084;18.206;2022-12-29T05:17:49;9.73;;;4.95;;
23394;SDS011;11870;53.084;18.206;2022-12-29T05:20:15;7.68;;;4.45;;
23394;SDS011;11870;53.084;18.206;2022-12-29T05:22:41;9.00;;;5.25;;
23394;SDS011;11870;53.084;18.206;2022-12-29T05:25:07;6.47;;;4.28;;
23394;SDS011;11870;53.084;18.206;2022-12-29T05:27:33;11.48;;;4.88;;
23394;SDS011;11870;53.084;18.206;2022-12-29T05:29:59;7.47;;;4.40;;
23394;SDS011;11870;53.084;18.206;2022-12-29T05:32:25;9.48;;;4.68;;
23394;SDS011;11870;53.084;18.206;2022-12-29T05:34:51;9.13;;;5.22;;
23394;SDS011;11870;53.084;18.206;2022-12-29T05:37:17;9.13;;;4.85;;
23394;SDS011;11870;53.084;18.206;2022-12-29T05:39:43;13.10;;;4.80;;
23394;SDS011;11870;53.084;18.206;2022-12-29T05:42:09;12.75;;;4.18;;
23394;SDS011;11870;53.084;18.206;2022-12-29T05:44:35;8.70;;;4.20;;
23394;SDS011;11870;53.084;18.206;2022-12-29T05:47:01;8.15;;;4.00;;
23394;SDS011;11870;53.084;18.206;2022-12-29T05:49:27;6.55;;;4.07;;
23394;SDS011;11870;53.084;18.206;2022-12-29T05:51:53;8.85;;;4.15;;
23394;SDS011;11870;53.084;18.206;2022-12-29T05:54:19;7.72;;;4.13;;
23394;SDS011;11870;53.084;18.206;2022-12-29T05:56:44;8.35;;;4.10;;
23394;SDS011;11870;53.084;18.206;2022-12-29T05:59:10;7.30;;;3.80;;
23394;SDS011;11870;53.084;18.206;2022-12-29T06:01:36;7.63;;;3.92;;
23394;SDS011;11870;53.084;18.206;2022-12-29T06:04:02;9.32;;;4.03;;
23394;SDS011;11870;53.084;18.206;2022-12-29T06:06:28;7.75;;;3.53;;
23394;SDS011;11870;53.084;18.206;2022-12-29T06:08:54;7.10;;;3.97;;
23394;SDS011;11870;53.084;18.206;2022-12-29T06:11:20;9.82;;;3.70;;
23394;SDS011;11870;53.084;18.206;2022-12-29T06:13:46;5.78;;;3.65;;
23394;SDS011;11870;53.084;18.206;2022-12-29T06:16:12;5.80;;;3.03;;
23394;SDS011;11870;53.084;18.206;2022-12-29T06:18:38;5.43;;;3.30;;
23394;SDS011;11870;53.084;18.206;2022-12-29T06:21:04;4.82;;;3.25;;
23394;SDS011;11870;53.084;18.206;2022-12-29T06:23:31;4.72;;;3.03;;
23394;SDS011;11870;53.084;18.206;2022-12-29T06:25:56;6.68;;;3.20;;
23394;SDS011;11870;53.084;18.206;2022-12-29T06:28:23;9.23;;;3.47;;
23394;SDS011;11870;53.084;18.206;2022-12-29T06:30:49;7.90;;;3.53;;
23394;SDS011;11870;53.084;18.206;2022-12-29T06:33:15;6.32;;;3.47;;
23394;SDS011;11870;53.084;18.206;2022-12-29T06:35:44;5.50;;;3.42;;
23394;SDS011;11870;53.084;18.206;2022-12-29T06:38:11;5.43;;;3.10;;
23394;SDS011;11870;53.084;18.206;2022-12-29T06:40:37;6.03;;;3.50;;
23394;SDS011;11870;53.084;18.206;2022-12-29T06:43:03;8.45;;;4.32;;
23394;SDS011;11870;53.084;18.206;2022-12-29T06:45:29;7.00;;;3.30;;
23394;SDS011;11870;53.084;18.206;2022-12-29T06:47:55;6.32;;;3.15;;
23394;SDS011;11870;53.084;18.206;2022-12-29T06:50:21;5.47;;;3.15;;
23394;SDS011;11870;53.084;18.206;2022-12-29T06:52:46;7.15;;;3.00;;
23394;SDS011;11870;53.084;18.206;2022-12-29T06:55:12;5.57;;;3.35;;
23394;SDS011;11870;53.084;18.206;2022-12-29T06:57:38;5.78;;;3.40;;
23394;SDS011;11870;53.084;18.206;2022-12-29T07:00:04;7.28;;;3.22;;
23394;SDS011;11870;53.084;18.206;2022-12-29T07:02:31;7.43;;;3.10;;
23394;SDS011;11870;53.084;18.206;2022-12-29T07:04:57;7.30;;;3.22;;
23394;SDS011;11870;53.084;18.206;2022-12-29T07:07:23;6.68;;;3.15;;
23394;SDS011;11870;53.084;18.206;2022-12-29T07:09:49;5.20;;;2.90;;
23394;SDS011;11870;53.084;18.206;2022-12-29T07:12:14;5.00;;;3.22;;
23394;SDS011;11870;53.084;18.206;2022-12-29T07:14:40;5.95;;;3.30;;
23394;SDS011;11870;53.084;18.206;2022-12-29T07:17:06;7.30;;;3.15;;
23394;SDS011;11870;53.084;18.206;2022-12-29T07:19:32;5.90;;;3.35;;
23394;SDS011;11870;53.084;18.206;2022-12-29T07:21:59;8.05;;;2.90;;
23394;SDS011;11870;53.084;18.206;2022-12-29T07:24:25;5.68;;;3.00;;
23394;SDS011;11870;53.084;18.206;2022-12-29T07:26:51;5.20;;;3.05;;
23394;SDS011;11870;53.084;18.206;2022-12-29T07:29:17;4.13;;;2.60;;
23394;SDS011;11870;53.084;18.206;2022-12-29T07:31:43;6.75;;;2.90;;
23394;SDS011;11870;53.084;18.206;2022-12-29T07:34:10;3.92;;;2.45;;
23394;SDS011;11870;53.084;18.206;2022-12-29T07:36:35;7.07;;;2.65;;
23394;SDS011;11870;53.084;18.206;2022-12-29T07:39:02;7.35;;;2.95;;
23394;SDS011;11870;53.084;18.206;2022-12-29T07:41:28;5.85;;;3.15;;
23394;SDS011;11870;53.084;18.206;2022-12-29T07:43:55;5.10;;;3.20;;
23394;SDS011;11870;53.084;18.206;2022-12-29T07:46:21;4.45;;;2.72;;
23394;SDS011;11870;53.084;18.206;2022-12-29T07:48:47;4.82;;;2.95;;
23394;SDS011;11870;53.084;18.206;2022-12-29T07:51:13;5.63;;;2.72;;
23394;SDS011;11870;53.084;18.206;2022-12-29T07:53:39;4.05;;;2.70;;
23394;SDS011;11870;53.084;18.206;2022-12-29T07:56:04;6.55;;;3.25;;
23394;SDS011;11870;53.084;18.206;2022-12-29T07:58:31;4.43;;;2.70;;
23394;SDS011;11870;53.084;18.206;2022-12-29T08:00:57;3.85;;;2.47;;
23394;SDS011;11870;53.084;18.206;2022-12-29T08:03:23;4.68;;;3.03;;
23394;SDS011;11870;53.084;18.206;2022-12-29T08:05:51;6.38;;;2.70;;
23394;SDS011;11870;53.084;18.206;2022-12-29T08:08:17;5.25;;;3.13;;
23394;SDS011;11870;53.084;18.206;2022-12-29T08:10:42;5.30;;;3.17;;
23394;SDS011;11870;53.084;18.206;2022-12-29T08:13:09;5.55;;;2.90;;
23394;SDS011;11870;53.084;18.206;2022-12-29T08:15:34;5.63;;;2.90;;
23394;SDS011;11870;53.084;18.206;2022-12-29T08:18:02;5.07;;;2.60;;
23394;SDS011;11870;53.084;18.206;2022-12-29T08:20:28;5.07;;;2.95;;
23394;SDS011;11870;53.084;18.206;2022-12-29T08:22:55;6.85;;;3.33;;
23394;SDS011;11870;53.084;18.206;2022-12-29T08:25:20;7.07;;;3.38;;
23394;SDS011;11870;53.084;18.206;2022-12-29T08:27:47;8.77;;;3.65;;
23394;SDS011;11870;53.084;18.206;2022-12-29T08:30:12;9.02;;;4.32;;
23394;SDS011;11870;53.084;18.206;2022-12-29T08:32:38;13.50;;;5.45;;
23394;SDS011;11870;53.084;18.206;2022-12-29T08:35:04;10.75;;;4.47;;
23394;SDS011;11870;53.084;18.206;2022-12-29T08:37:31;11.70;;;4.97;;
23394;SDS011;11870;53.084;18.206;2022-12-29T08:39:58;9.15;;;3.75;;
23394;SDS011;11870;53.084;18.206;2022-12-29T08:42:29;10.25;;;3.78;;
23394;SDS011;11870;53.084;18.206;2022-12-29T08:44:56;11.10;;;3.20;;
23394;SDS011;11870;53.084;18.206;2022-12-29T08:47:24;6.13;;;2.97;;
23394;SDS011;11870;53.084;18.206;2022-12-29T08:49:50;9.88;;;3.90;;
23394;SDS011;11870;53.084;18.206;2022-12-29T08:52:16;5.72;;;2.85;;
23394;SDS011;11870;53.084;18.206;2022-12-29T08:54:43;5.28;;;2.65;;
23394;SDS011;11870;53.084;18.206;2022-12-29T08:57:09;9.10;;;2.90;;
23394;SDS011;11870;53.084;18.206;2022-12-29T08:59:35;5.40;;;2.75;;
23394;SDS011;11870;53.084;18.206;2022-12-29T09:02:01;4.05;;;2.42;;
23394;SDS011;11870;53.084;18.206;2022-12-29T09:04:27;8.02;;;3.97;;
23394;SDS011;11870;53.084;18.206;2022-12-29T09:06:53;6.50;;;3.10;;
23394;SDS011;11870;53.084;18.206;2022-12-29T09:09:19;7.47;;;3.30;;
23394;SDS011;11870;53.084;18.206;2022-12-29T09:11:45;5.13;;;2.75;;
23394;SDS011;11870;53.084;18.206;2022-12-29T09:14:12;5.43;;;3.00;;
23394;SDS011;11870;53.084;18.206;2022-12-29T09:16:38;7.60;;;2.90;;
23394;SDS011;11870;53.084;18.206;2022-12-29T09:19:23;5.13;;;2.95;;
23394;SDS011;11870;53.084;18.206;2022-12-29T09:21:49;4.82;;;2.88;;
23394;SDS011;11870;53.084;18.206;2022-12-29T09:24:15;6.00;;;2.83;;
23394;SDS011;11870;53.084;18.206;2022-12-29T09:26:41;6.45;;;3.53;;
23394;SDS011;11870;53.084;18.206;2022-12-29T09:29:07;8.32;;;3.38;;
23394;SDS011;11870;53.084;18.206;2022-12-29T09:31:33;7.90;;;3.40;;
23394;SDS011;11870;53.084;18.206;2022-12-29T09:33:59;7.00;;;3.25;;
23394;SDS011;11870;53.084;18.206;2022-12-29T09:36:25;7.20;;;3.40;;
23394;SDS011;11870;53.084;18.206;2022-12-29T09:38:52;8.55;;;3.65;;
23394;SDS011;11870;53.084;18.206;2022-12-29T09:44:23;7.38;;;3.30;;
23394;SDS011;11870;53.084;18.206;2022-12-29T09:47:02;6.13;;;3.42;;
23394;SDS011;11870;53.084;18.206;2022-12-29T09:49:30;7.93;;;3.80;;
23394;SDS011;11870;53.084;18.206;2022-12-29T09:52:06;5.90;;;3.30;;
23394;SDS011;11870;53.084;18.206;2022-12-29T09:54:39;8.82;;;3.45;;
23394;SDS011;11870;53.084;18.206;2022-12-29T09:57:24;7.57;;;3.38;;
23394;SDS011;11870;53.084;18.206;2022-12-29T09:59:55;7.57;;;3.55;;
23394;SDS011;11870;53.084;18.206;2022-12-29T10:02:36;6.50;;;3.05;;
23394;SDS011;11870;53.084;18.206;2022-12-29T10:10:38;5.65;;;3.20;;
23394;SDS011;11870;53.084;18.206;2022-12-29T10:23:52;6.57;;;3.75;;
23394;SDS011;11870;53.084;18.206;2022-12-29T10:26:30;7.93;;;3.70;;
23394;SDS011;11870;53.084;18.206;2022-12-29T10:29:05;7.50;;;3.13;;
23394;SDS011;11870;53.084;18.206;2022-12-29T10:31:37;5.88;;;3.30;;
23394;SDS011;11870;53.084;18.206;2022-12-29T10:34:19;6.90;;;3.30;;
23394;SDS011;11870;53.084;18.206;2022-12-29T10:36:51;5.60;;;2.83;;
23394;SDS011;11870;53.084;18.206;2022-12-29T10:42:15;5.88;;;2.92;;
23394;SDS011;11870;53.084;18.206;2022-12-29T10:45:10;5.57;;;2.80;;
23394;SDS011;11870;53.084;18.206;2022-12-29T10:47:49;6.13;;;3.10;;
23394;SDS011;11870;53.084;18.206;2022-12-29T10:50:25;6.28;;;3.03;;
23394;SDS011;11870;53.084;18.206;2022-12-29T10:52:54;8.80;;;3.35;;
23394;SDS011;11870;53.084;18.206;2022-12-29T10:55:22;9.07;;;3.67;;
23394;SDS011;11870;53.084;18.206;2022-12-29T10:57:53;8.55;;;3.53;;
23394;SDS011;11870;53.084;18.206;2022-12-29T11:00:22;6.65;;;3.33;;
23394;SDS011;11870;53.084;18.206;2022-12-29T11:02:52;8.18;;;3.40;;
23394;SDS011;11870;53.084;18.206;2022-12-29T11:05:36;8.15;;;3.33;;
23394;SDS011;11870;53.084;18.206;2022-12-29T11:08:25;8.10;;;3.30;;
23394;SDS011;11870;53.084;18.206;2022-12-29T11:10:58;9.50;;;3.10;;
23394;SDS011;11870;53.084;18.206;2022-12-29T11:13:28;6.35;;;3.03;;
23394;SDS011;11870;53.084;18.206;2022-12-29T11:15:55;6.30;;;3.35;;
23394;SDS011;11870;53.084;18.206;2022-12-29T11:18:23;9.00;;;3.45;;
23394;SDS011;11870;53.084;18.206;2022-12-29T11:20:59;5.28;;;3.00;;
23394;SDS011;11870;53.084;18.206;2022-12-29T11:23:34;7.50;;;3.65;;
23394;SDS011;11870;53.084;18.206;2022-12-29T11:26:38;9.70;;;3.70;;
23394;SDS011;11870;53.084;18.206;2022-12-29T11:29:08;9.35;;;3.88;;
23394;SDS011;11870;53.084;18.206;2022-12-29T11:31:45;7.47;;;3.60;;
23394;SDS011;11870;53.084;18.206;2022-12-29T11:34:18;5.28;;;2.90;;
23394;SDS011;11870;53.084;18.206;2022-12-29T11:36:53;10.60;;;3.42;;
23394;SDS011;11870;53.084;18.206;2022-12-29T11:42:16;7.18;;;3.38;;
23394;SDS011;11870;53.084;18.206;2022-12-29T11:44:46;8.48;;;3.35;;
23394;SDS011;11870;53.084;18.206;2022-12-29T11:48:15;9.50;;;4.05;;
23394;SDS011;11870;53.084;18.206;2022-12-29T11:50:15;7.50;;;3.60;;
23394;SDS011;11870;53.084;18.206;2022-12-29T11:52:56;9.85;;;4.00;;
23394;SDS011;11870;53.084;18.206;2022-12-29T11:55:33;8.95;;;3.20;;
23394;SDS011;11870;53.084;18.206;2022-12-29T11:58:00;8.15;;;3.92;;
23394;SDS011;11870;53.084;18.206;2022-12-29T12:00:30;7.43;;;3.67;;
23394;SDS011;11870;53.084;18.206;2022-12-29T12:03:02;8.32;;;3.63;;
23394;SDS011;11870;53.084;18.206;2022-12-29T12:05:41;13.55;;;4.10;;
23394;SDS011;11870;53.084;18.206;2022-12-29T12:11:15;5.30;;;3.22;;
23394;SDS011;11870;53.084;18.206;2022-12-29T12:14:14;6.90;;;3.40;;
23394;SDS011;11870;53.084;18.206;2022-12-29T12:16:54;6.47;;;2.88;;
23394;SDS011;11870;53.084;18.206;2022-12-29T12:19:38;6.25;;;3.15;;
23394;SDS011;11870;53.084;18.206;2022-12-29T12:22:16;5.38;;;2.80;;
23394;SDS011;11870;53.084;18.206;2022-12-29T12:24:54;4.75;;;2.88;;
23394;SDS011;11870;53.084;18.206;2022-12-29T12:27:37;4.70;;;3.00;;
23394;SDS011;11870;53.084;18.206;2022-12-29T12:30:15;8.13;;;3.20;;
23394;SDS011;11870;53.084;18.206;2022-12-29T12:33:00;6.72;;;2.85;;
23394;SDS011;11870;53.084;18.206;2022-12-29T12:35:45;7.07;;;2.80;;
23394;SDS011;11870;53.084;18.206;2022-12-29T12:43:39;7.90;;;3.53;;
23394;SDS011;11870;53.084;18.206;2022-12-29T12:49:11;4.85;;;2.55;;
23394;SDS011;11870;53.084;18.206;2022-12-29T12:52:02;5.50;;;2.70;;
23394;SDS011;11870;53.084;18.206;2022-12-29T13:00:21;6.00;;;3.17;;
23394;SDS011;11870;53.084;18.206;2022-12-29T13:13:41;5.10;;;2.60;;
23394;SDS011;11870;53.084;18.206;2022-12-29T13:18:59;6.03;;;2.90;;
23394;SDS011;11870;53.084;18.206;2022-12-29T13:29:40;4.68;;;2.45;;
23394;SDS011;11870;53.084;18.206;2022-12-29T13:38:16;6.47;;;2.70;;
23394;SDS011;11870;53.084;18.206;2022-12-29T13:40:47;5.82;;;2.50;;
23394;SDS011;11870;53.084;18.206;2022-12-29T13:43:17;4.95;;;2.53;;
23394;SDS011;11870;53.084;18.206;2022-12-29T13:45:45;4.45;;;2.42;;
23394;SDS011;11870;53.084;18.206;2022-12-29T13:48:21;4.90;;;2.38;;
23394;SDS011;11870;53.084;18.206;2022-12-29T13:50:55;5.20;;;2.55;;
23394;SDS011;11870;53.084;18.206;2022-12-29T13:53:33;5.57;;;2.50;;
23394;SDS011;11870;53.084;18.206;2022-12-29T13:56:20;4.63;;;2.50;;
23394;SDS011;11870;53.084;18.206;2022-12-29T14:02:02;5.28;;;2.45;;
23394;SDS011;11870;53.084;18.206;2022-12-29T14:04:56;4.63;;;2.40;;
23394;SDS011;11870;53.084;18.206;2022-12-29T14:07:25;5.47;;;2.42;;
23394;SDS011;11870;53.084;18.206;2022-12-29T14:09:52;4.32;;;2.55;;
23394;SDS011;11870;53.084;18.206;2022-12-29T14:14:46;5.35;;;2.58;;
23394;SDS011;11870;53.084;18.206;2022-12-29T14:17:12;6.28;;;2.80;;
23394;SDS011;11870;53.084;18.206;2022-12-29T14:19:44;5.47;;;2.95;;
23394;SDS011;11870;53.084;18.206;2022-12-29T14:22:11;5.20;;;2.30;;
23394;SDS011;11870;53.084;18.206;2022-12-29T14:24:40;3.22;;;2.25;;
23394;SDS011;11870;53.084;18.206;2022-12-29T14:32:35;5.43;;;2.50;;
23394;SDS011;11870;53.084;18.206;2022-12-29T14:34:56;5.78;;;2.63;;
23394;SDS011;11870;53.084;18.206;2022-12-29T14:37:30;5.25;;;2.30;;
23394;SDS011;11870;53.084;18.206;2022-12-29T14:42:45;4.60;;;2.28;;
23394;SDS011;11870;53.084;18.206;2022-12-29T14:47:42;8.98;;;3.35;;
23394;SDS011;11870;53.084;18.206;2022-12-29T14:52:52;9.63;;;3.35;;
23394;SDS011;11870;53.084;18.206;2022-12-29T14:57:59;7.28;;;3.17;;
23394;SDS011;11870;53.084;18.206;2022-12-29T15:00:29;6.00;;;3.05;;
23394;SDS011;11870;53.084;18.206;2022-12-29T15:05:54;5.57;;;2.88;;
23394;SDS011;11870;53.084;18.206;2022-12-29T15:08:28;6.05;;;2.95;;
23394;SDS011;11870;53.084;18.206;2022-12-29T15:10:59;7.68;;;3.72;;
23394;SDS011;11870;53.084;18.206;2022-12-29T15:13:39;9.85;;;3.78;;
23394;SDS011;11870;53.084;18.206;2022-12-29T15:18:56;9.25;;;4.20;;
23394;SDS011;11870;53.084;18.206;2022-12-29T15:21:24;12.23;;;4.97;;
23394;SDS011;11870;53.084;18.206;2022-12-29T15:23:54;8.73;;;4.32;;
23394;SDS011;11870;53.084;18.206;2022-12-29T15:26:20;10.07;;;4.50;;
23394;SDS011;11870;53.084;18.206;2022-12-29T15:28:50;8.48;;;4.25;;
23394;SDS011;11870;53.084;18.206;2022-12-29T15:31:24;9.85;;;3.88;;
23394;SDS011;11870;53.084;18.206;2022-12-29T15:33:52;7.53;;;3.17;;
23394;SDS011;11870;53.084;18.206;2022-12-29T15:38:47;6.03;;;3.10;;
23394;SDS011;11870;53.084;18.206;2022-12-29T15:41:21;6.03;;;3.20;;
23394;SDS011;11870;53.084;18.206;2022-12-29T15:44:35;5.82;;;2.83;;
23394;SDS011;11870;53.084;18.206;2022-12-29T15:47:05;7.50;;;3.47;;
23394;SDS011;11870;53.084;18.206;2022-12-29T15:49:37;7.60;;;3.75;;
23394;SDS011;11870;53.084;18.206;2022-12-29T15:52:07;7.00;;;3.45;;
23394;SDS011;11870;53.084;18.206;2022-12-29T15:54:34;7.90;;;3.50;;
23394;SDS011;11870;53.084;18.206;2022-12-29T15:57:01;6.13;;;3.63;;
23394;SDS011;11870;53.084;18.206;2022-12-29T15:59:31;8.45;;;3.85;;
23394;SDS011;11870;53.084;18.206;2022-12-29T16:01:59;7.72;;;3.90;;
23394;SDS011;11870;53.084;18.206;2022-12-29T16:04:27;8.70;;;3.83;;
23394;SDS011;11870;53.084;18.206;2022-12-29T16:09:34;7.65;;;4.15;;
23394;SDS011;11870;53.084;18.206;2022-12-29T16:12:14;9.18;;;4.20;;
23394;SDS011;11870;53.084;18.206;2022-12-29T16:14:44;11.93;;;5.53;;
23394;SDS011;11870;53.084;18.206;2022-12-29T16:17:14;11.10;;;5.07;;
23394;SDS011;11870;53.084;18.206;2022-12-29T16:19:51;11.88;;;5.75;;
23394;SDS011;11870;53.084;18.206;2022-12-29T16:24:59;11.30;;;5.53;;
23394;SDS011;11870;53.084;18.206;2022-12-29T16:27:32;14.68;;;7.07;;
23394;SDS011;11870;53.084;18.206;2022-12-29T16:30:03;17.23;;;7.35;;
23394;SDS011;11870;53.084;18.206;2022-12-29T16:32:48;16.20;;;6.45;;
23394;SDS011;11870;53.084;18.206;2022-12-29T16:35:23;14.45;;;6.43;;
23394;SDS011;11870;53.084;18.206;2022-12-29T16:38:10;14.52;;;6.65;;
23394;SDS011;11870;53.084;18.206;2022-12-29T16:40:56;12.95;;;6.28;;
23394;SDS011;11870;53.084;18.206;2022-12-29T16:43:27;14.70;;;6.05;;
23394;SDS011;11870;53.084;18.206;2022-12-29T16:48:26;13.50;;;6.80;;
23394;SDS011;11870;53.084;18.206;2022-12-29T16:51:29;18.15;;;5.93;;
23394;SDS011;11870;53.084;18.206;2022-12-29T16:54:05;12.23;;;6.00;;
23394;SDS011;11870;53.084;18.206;2022-12-29T16:56:33;14.98;;;6.20;;
23394;SDS011;11870;53.084;18.206;2022-12-29T16:59:06;9.77;;;5.10;;
23394;SDS011;11870;53.084;18.206;2022-12-29T17:01:42;10.55;;;5.30;;
23394;SDS011;11870;53.084;18.206;2022-12-29T17:04:09;10.73;;;5.70;;
23394;SDS011;11870;53.084;18.206;2022-12-29T17:06:37;10.30;;;5.20;;
23394;SDS011;11870;53.084;18.206;2022-12-29T17:09:15;11.20;;;5.78;;